Terminal Aerodrome Forecast
Issued by NWS Grand Forks, ND

Home | Current Version | Previous Version | Graphics & Text | Print | Product List | Glossary On
Versions: 1 2 3 4 5 6 7 8 9 10 11 12 13 14 15
000
FTUS43 KFGF 221732
TAFGFK
TAF
KGFK 221732Z 2218/2318 29015G23KT P6SM FEW050
     FM230100 33012KT P6SM SCT070
     FM230600 32008KT P6SM FEW090
     FM231300 35008KT P6SM SCT110=

USA.gov is the U.S. government's official web portal to all federal, state and local government web resources and services.